sensor_id;sensor_type;location;lat;lon;timestamp;pressure;altitude;pressure_sealevel;temperature;humidity
61292;BME280;47165;42.664;23.368;2023-02-23T00:02:23;94870.09;;;9.91;46.33
61292;BME280;47165;42.664;23.368;2023-02-23T00:04:48;94872.91;;;10.02;45.94
61292;BME280;47165;42.664;23.368;2023-02-23T00:07:14;94877.63;;;10.11;45.55
61292;BME280;47165;42.664;23.368;2023-02-23T00:09:43;94883.69;;;10.12;45.44
61292;BME280;47165;42.664;23.368;2023-02-23T00:12:08;94889.56;;;10.15;45.08
61292;BME280;47165;42.664;23.368;2023-02-23T00:14:35;94888.34;;;10.21;45.07
61292;BME280;47165;42.664;23.368;2023-02-23T00:17:05;94884.00;;;10.21;44.76
61292;BME280;47165;42.664;23.368;2023-02-23T00:19:38;94883.66;;;10.27;44.80
61292;BME280;47165;42.664;23.368;2023-02-23T00:22:03;94884.75;;;10.23;44.82
61292;BME280;47165;42.664;23.368;2023-02-23T00:24:28;94880.13;;;10.13;45.16
61292;BME280;47165;42.664;23.368;2023-02-23T00:26:54;94889.56;;;10.15;44.88
61292;BME280;47165;42.664;23.368;2023-02-23T00:29:22;94890.41;;;10.16;44.56
61292;BME280;47165;42.664;23.368;2023-02-23T00:31:48;94886.56;;;10.07;44.78
61292;BME280;47165;42.664;23.368;2023-02-23T00:34:16;94883.34;;;10.02;44.82
61292;BME280;47165;42.664;23.368;2023-02-23T00:36:45;94892.47;;;9.95;45.21
61292;BME280;47165;42.664;23.368;2023-02-23T00:39:13;94884.78;;;9.92;46.07
61292;BME280;47165;42.664;23.368;2023-02-23T00:41:46;94885.41;;;9.97;46.10
61292;BME280;47165;42.664;23.368;2023-02-23T00:44:11;94885.22;;;10.00;46.03
61292;BME280;47165;42.664;23.368;2023-02-23T00:46:39;94871.06;;;10.04;45.79
61292;BME280;47165;42.664;23.368;2023-02-23T00:49:08;94881.50;;;10.04;45.66
61292;BME280;47165;42.664;23.368;2023-02-23T00:51:35;94884.19;;;10.02;46.03
61292;BME280;47165;42.664;23.368;2023-02-23T00:54:02;94879.38;;;10.11;45.86
61292;BME280;47165;42.664;23.368;2023-02-23T00:56:27;94883.59;;;10.13;45.96
61292;BME280;47165;42.664;23.368;2023-02-23T00:58:53;94884.16;;;10.18;45.79
61292;BME280;47165;42.664;23.368;2023-02-23T01:01:19;94885.09;;;10.17;45.68
61292;BME280;47165;42.664;23.368;2023-02-23T01:03:44;94882.50;;;10.17;45.45
61292;BME280;47165;42.664;23.368;2023-02-23T01:06:13;94887.88;;;10.14;45.62
61292;BME280;47165;42.664;23.368;2023-02-23T01:08:42;94877.22;;;10.03;45.96
61292;BME280;47165;42.664;23.368;2023-02-23T01:11:18;94882.50;;;10.01;46.01
61292;BME280;47165;42.664;23.368;2023-02-23T01:13:50;94879.06;;;10.01;46.15
61292;BME280;47165;42.664;23.368;2023-02-23T01:16:19;94873.84;;;10.01;45.88
61292;BME280;47165;42.664;23.368;2023-02-23T01:18:45;94878.81;;;10.05;46.29
61292;BME280;47165;42.664;23.368;2023-02-23T01:21:16;94876.13;;;10.07;46.06
61292;BME280;47165;42.664;23.368;2023-02-23T01:23:42;94874.25;;;10.09;45.98
61292;BME280;47165;42.664;23.368;2023-02-23T01:26:19;94873.25;;;10.12;45.98
61292;BME280;47165;42.664;23.368;2023-02-23T01:28:54;94872.22;;;10.14;45.75
61292;BME280;47165;42.664;23.368;2023-02-23T01:31:21;94871.53;;;10.11;45.97
61292;BME280;47165;42.664;23.368;2023-02-23T01:33:51;94876.63;;;9.98;46.42
61292;BME280;47165;42.664;23.368;2023-02-23T01:36:17;94860.50;;;9.91;46.42
61292;BME280;47165;42.664;23.368;2023-02-23T01:38:42;94880.00;;;10.00;46.42
61292;BME280;47165;42.664;23.368;2023-02-23T01:41:08;94874.44;;;10.06;46.19
61292;BME280;47165;42.664;23.368;2023-02-23T01:43:34;94874.63;;;10.03;46.24
61292;BME280;47165;42.664;23.368;2023-02-23T01:46:02;94874.84;;;9.98;46.32
61292;BME280;47165;42.664;23.368;2023-02-23T01:48:31;94869.41;;;10.03;46.28
61292;BME280;47165;42.664;23.368;2023-02-23T01:51:03;94864.19;;;10.03;46.22
61292;BME280;47165;42.664;23.368;2023-02-23T01:53:33;94869.81;;;9.95;46.37
61292;BME280;47165;42.664;23.368;2023-02-23T01:56:14;94870.50;;;9.99;46.34
61292;BME280;47165;42.664;23.368;2023-02-23T01:58:45;94866.88;;;10.01;46.26
61292;BME280;47165;42.664;23.368;2023-02-23T02:01:12;94867.47;;;9.91;46.59
61292;BME280;47165;42.664;23.368;2023-02-23T02:03:47;94866.38;;;9.95;46.41
61292;BME280;47165;42.664;23.368;2023-02-23T02:06:16;94859.00;;;9.71;46.79
61292;BME280;47165;42.664;23.368;2023-02-23T02:08:46;94860.63;;;9.58;47.08
61292;BME280;47165;42.664;23.368;2023-02-23T02:11:15;94855.41;;;9.58;47.31
61292;BME280;47165;42.664;23.368;2023-02-23T02:13:58;94859.34;;;9.65;47.22
61292;BME280;47165;42.664;23.368;2023-02-23T02:19:34;94864.47;;;9.66;47.01
61292;BME280;47165;42.664;23.368;2023-02-23T02:29:59;94869.44;;;9.39;47.51
61292;BME280;47165;42.664;23.368;2023-02-23T02:41:12;94865.91;;;9.09;48.02
61292;BME280;47165;42.664;23.368;2023-02-23T02:44:23;94867.41;;;9.13;48.07
61292;BME280;47165;42.664;23.368;2023-02-23T02:47:01;94851.94;;;9.10;48.08
61292;BME280;47165;42.664;23.368;2023-02-23T02:49:31;94859.66;;;9.11;48.34
61292;BME280;47165;42.664;23.368;2023-02-23T02:52:05;94858.84;;;9.11;47.73
61292;BME280;47165;42.664;23.368;2023-02-23T02:54:35;94860.50;;;9.12;47.60
61292;BME280;47165;42.664;23.368;2023-02-23T02:57:03;94860.06;;;9.03;48.17
61292;BME280;47165;42.664;23.368;2023-02-23T02:59:30;94858.19;;;8.90;48.47
61292;BME280;47165;42.664;23.368;2023-02-23T03:02:16;94864.16;;;8.92;48.40
61292;BME280;47165;42.664;23.368;2023-02-23T03:05:01;94855.25;;;8.80;48.52
61292;BME280;47165;42.664;23.368;2023-02-23T03:11:04;94867.66;;;8.75;49.07
61292;BME280;47165;42.664;23.368;2023-02-23T03:20:24;94868.47;;;8.59;49.80
61292;BME280;47165;42.664;23.368;2023-02-23T03:26:09;94876.63;;;8.34;50.09
61292;BME280;47165;42.664;23.368;2023-02-23T03:29:01;94876.31;;;8.40;49.98
61292;BME280;47165;42.664;23.368;2023-02-23T03:35:07;94882.34;;;8.23;50.60
61292;BME280;47165;42.664;23.368;2023-02-23T03:38:08;94877.78;;;8.29;50.46
61292;BME280;47165;42.664;23.368;2023-02-23T03:40:53;94883.00;;;8.29;50.50
61292;BME280;47165;42.664;23.368;2023-02-23T03:43:43;94883.44;;;8.37;50.29
61292;BME280;47165;42.664;23.368;2023-02-23T03:46:30;94879.50;;;8.47;50.07
61292;BME280;47165;42.664;23.368;2023-02-23T03:49:17;94891.50;;;8.50;50.10
61292;BME280;47165;42.664;23.368;2023-02-23T03:52:15;94889.09;;;8.62;49.75
61292;BME280;47165;42.664;23.368;2023-02-23T03:55:19;94892.34;;;8.50;49.51
61292;BME280;47165;42.664;23.368;2023-02-23T03:58:07;94897.22;;;8.39;50.34
61292;BME280;47165;42.664;23.368;2023-02-23T04:00:53;94894.94;;;8.50;50.07
61292;BME280;47165;42.664;23.368;2023-02-23T04:03:43;94897.91;;;8.42;50.07
61292;BME280;47165;42.664;23.368;2023-02-23T04:06:33;94893.94;;;8.53;49.98
61292;BME280;47165;42.664;23.368;2023-02-23T04:09:18;94897.28;;;8.55;49.48
61292;BME280;47165;42.664;23.368;2023-02-23T04:12:12;94903.50;;;8.52;49.00
61292;BME280;47165;42.664;23.368;2023-02-23T04:15:06;94902.16;;;8.45;49.67
61292;BME280;47165;42.664;23.368;2023-02-23T04:17:34;94903.81;;;8.46;49.35
61292;BME280;47165;42.664;23.368;2023-02-23T04:19:59;94896.13;;;8.25;49.46
61292;BME280;47165;42.664;23.368;2023-02-23T04:22:25;94900.56;;;8.23;49.77
61292;BME280;47165;42.664;23.368;2023-02-23T04:24:50;94895.44;;;8.22;50.41
61292;BME280;47165;42.664;23.368;2023-02-23T04:27:17;94900.28;;;8.12;50.37
61292;BME280;47165;42.664;23.368;2023-02-23T04:29:42;94901.69;;;8.00;50.85
61292;BME280;47165;42.664;23.368;2023-02-23T04:32:12;94900.41;;;8.09;50.35
61292;BME280;47165;42.664;23.368;2023-02-23T04:34:39;94900.63;;;8.04;50.41
61292;BME280;47165;42.664;23.368;2023-02-23T04:37:05;94898.88;;;8.05;50.24
61292;BME280;47165;42.664;23.368;2023-02-23T04:39:30;94907.59;;;8.04;50.14
61292;BME280;47165;42.664;23.368;2023-02-23T04:41:55;94902.53;;;8.01;49.93
61292;BME280;47165;42.664;23.368;2023-02-23T04:44:21;94905.66;;;7.90;51.32
61292;BME280;47165;42.664;23.368;2023-02-23T04:46:46;94897.78;;;7.92;51.30
61292;BME280;47165;42.664;23.368;2023-02-23T04:49:12;94901.69;;;8.00;50.44
61292;BME280;47165;42.664;23.368;2023-02-23T04:51:37;94904.97;;;7.86;50.69
61292;BME280;47165;42.664;23.368;2023-02-23T04:54:03;94901.66;;;7.83;51.04
61292;BME280;47165;42.664;23.368;2023-02-23T04:56:30;94916.19;;;7.87;50.24
61292;BME280;47165;42.664;23.368;2023-02-23T04:58:56;94906.66;;;7.69;50.73
61292;BME280;47165;42.664;23.368;2023-02-23T05:01:21;94899.03;;;7.65;50.62
61292;BME280;47165;42.664;23.368;2023-02-23T05:03:48;94904.53;;;7.77;50.76
61292;BME280;47165;42.664;23.368;2023-02-23T05:06:14;94914.06;;;7.59;51.73
61292;BME280;47165;42.664;23.368;2023-02-23T05:08:40;94909.94;;;7.55;52.31
61292;BME280;47165;42.664;23.368;2023-02-23T05:11:06;94905.63;;;7.54;52.48
61292;BME280;47165;42.664;23.368;2023-02-23T05:13:32;94902.72;;;7.42;52.16
61292;BME280;47165;42.664;23.368;2023-02-23T05:15:57;94909.06;;;7.54;51.89
61292;BME280;47165;42.664;23.368;2023-02-23T05:18:23;94910.72;;;7.57;51.91
61292;BME280;47165;42.664;23.368;2023-02-23T05:20:50;94910.28;;;7.47;52.13
61292;BME280;47165;42.664;23.368;2023-02-23T05:23:15;94919.97;;;7.43;52.86
61292;BME280;47165;42.664;23.368;2023-02-23T05:25:41;94921.25;;;7.35;52.87
61292;BME280;47165;42.664;23.368;2023-02-23T05:28:06;94921.66;;;7.44;52.49
61292;BME280;47165;42.664;23.368;2023-02-23T05:30:32;94918.91;;;7.48;52.36
61292;BME280;47165;42.664;23.368;2023-02-23T05:32:58;94915.53;;;7.45;53.16
61292;BME280;47165;42.664;23.368;2023-02-23T05:35:23;94925.66;;;7.52;51.65
61292;BME280;47165;42.664;23.368;2023-02-23T05:37:49;94920.69;;;7.47;52.09
61292;BME280;47165;42.664;23.368;2023-02-23T05:40:14;94921.38;;;7.51;52.91
61292;BME280;47165;42.664;23.368;2023-02-23T05:42:40;94928.53;;;7.45;53.37
61292;BME280;47165;42.664;23.368;2023-02-23T05:45:06;94923.63;;;7.39;53.50
61292;BME280;47165;42.664;23.368;2023-02-23T05:47:32;94936.97;;;7.51;53.63
61292;BME280;47165;42.664;23.368;2023-02-23T05:49:59;94944.19;;;7.44;53.98
61292;BME280;47165;42.664;23.368;2023-02-23T05:52:25;94947.53;;;7.46;54.05
61292;BME280;47165;42.664;23.368;2023-02-23T05:54:51;94939.06;;;7.42;54.20
61292;BME280;47165;42.664;23.368;2023-02-23T05:57:16;94954.50;;;7.45;54.00
61292;BME280;47165;42.664;23.368;2023-02-23T05:59:42;94943.06;;;7.50;53.67
61292;BME280;47165;42.664;23.368;2023-02-23T06:02:07;94946.16;;;7.58;53.38
61292;BME280;47165;42.664;23.368;2023-02-23T06:04:32;94951.22;;;7.61;53.36
61292;BME280;47165;42.664;23.368;2023-02-23T06:06:58;94955.84;;;7.73;52.98
61292;BME280;47165;42.664;23.368;2023-02-23T06:09:23;94959.91;;;7.79;52.68
61292;BME280;47165;42.664;23.368;2023-02-23T06:11:49;94964.91;;;7.83;52.95
61292;BME280;47165;42.664;23.368;2023-02-23T06:14:15;94963.91;;;7.86;52.95
61292;BME280;47165;42.664;23.368;2023-02-23T06:16:40;94962.63;;;7.95;52.38
61292;BME280;47165;42.664;23.368;2023-02-23T06:19:09;94967.81;;;7.95;52.55
61292;BME280;47165;42.664;23.368;2023-02-23T06:21:34;94961.25;;;7.88;52.78
61292;BME280;47165;42.664;23.368;2023-02-23T06:24:00;94963.84;;;7.88;52.77
61292;BME280;47165;42.664;23.368;2023-02-23T06:26:27;94974.09;;;7.91;53.11
61292;BME280;47165;42.664;23.368;2023-02-23T06:28:52;94971.25;;;7.95;53.06
61292;BME280;47165;42.664;23.368;2023-02-23T06:31:18;94969.59;;;7.94;53.28
61292;BME280;47165;42.664;23.368;2023-02-23T06:33:43;94971.25;;;7.95;53.05
61292;BME280;47165;42.664;23.368;2023-02-23T06:36:08;94979.81;;;7.97;53.10
61292;BME280;47165;42.664;23.368;2023-02-23T06:38:35;94975.34;;;8.01;53.31
61292;BME280;47165;42.664;23.368;2023-02-23T06:41:08;94970.63;;;8.09;53.04
61292;BME280;47165;42.664;23.368;2023-02-23T06:43:34;94978.41;;;8.09;53.09
61292;BME280;47165;42.664;23.368;2023-02-23T06:45:59;94978.13;;;8.15;53.61
61292;BME280;47165;42.664;23.368;2023-02-23T06:48:25;94981.50;;;8.17;53.22
61292;BME280;47165;42.664;23.368;2023-02-23T06:50:51;94976.75;;;8.25;53.32
61292;BME280;47165;42.664;23.368;2023-02-23T06:53:16;94983.50;;;8.30;53.13
61292;BME280;47165;42.664;23.368;2023-02-23T06:55:42;94984.13;;;8.35;52.98
61292;BME280;47165;42.664;23.368;2023-02-23T06:58:08;94989.06;;;8.41;53.47
61292;BME280;47165;42.664;23.368;2023-02-23T07:00:33;94989.34;;;8.35;53.35
61292;BME280;47165;42.664;23.368;2023-02-23T07:02:59;94980.28;;;8.24;53.93
61292;BME280;47165;42.664;23.368;2023-02-23T07:05:25;94983.03;;;8.21;53.75
61292;BME280;47165;42.664;23.368;2023-02-23T07:07:50;94982.81;;;8.26;53.99
61292;BME280;47165;42.664;23.368;2023-02-23T07:10:17;94986.47;;;8.41;53.62
61292;BME280;47165;42.664;23.368;2023-02-23T07:12:42;94989.69;;;8.27;54.05
61292;BME280;47165;42.664;23.368;2023-02-23T07:15:08;94980.91;;;8.30;54.03
61292;BME280;47165;42.664;23.368;2023-02-23T07:17:35;94989.53;;;8.30;53.93
61292;BME280;47165;42.664;23.368;2023-02-23T07:20:01;94988.16;;;8.42;53.70
61292;BME280;47165;42.664;23.368;2023-02-23T07:22:26;94984.25;;;8.51;53.75
61292;BME280;47165;42.664;23.368;2023-02-23T07:24:57;94985.56;;;8.59;53.54
61292;BME280;47165;42.664;23.368;2023-02-23T07:27:23;94988.00;;;8.62;53.24
61292;BME280;47165;42.664;23.368;2023-02-23T07:29:48;94985.28;;;8.65;53.31
61292;BME280;47165;42.664;23.368;2023-02-23T07:32:14;94986.88;;;8.68;53.25
61292;BME280;47165;42.664;23.368;2023-02-23T07:34:39;94982.34;;;8.72;53.00
61292;BME280;47165;42.664;23.368;2023-02-23T07:37:04;94978.69;;;8.76;53.09
61292;BME280;47165;42.664;23.368;2023-02-23T07:39:30;94973.84;;;8.85;52.79
61292;BME280;47165;42.664;23.368;2023-02-23T07:41:56;94976.22;;;8.90;52.58
61292;BME280;47165;42.664;23.368;2023-02-23T07:44:22;94967.16;;;8.97;52.72
61292;BME280;47165;42.664;23.368;2023-02-23T07:46:47;94969.75;;;8.97;52.35
61292;BME280;47165;42.664;23.368;2023-02-23T07:49:13;94964.88;;;9.09;52.31
61292;BME280;47165;42.664;23.368;2023-02-23T07:51:39;94965.63;;;9.11;52.02
61292;BME280;47165;42.664;23.368;2023-02-23T07:54:05;94965.19;;;9.18;52.20
61292;BME280;47165;42.664;23.368;2023-02-23T07:56:31;94959.91;;;9.20;52.24
61292;BME280;47165;42.664;23.368;2023-02-23T07:58:57;94964.56;;;9.31;51.78
61292;BME280;47165;42.664;23.368;2023-02-23T08:01:22;94963.47;;;9.35;52.03
61292;BME280;47165;42.664;23.368;2023-02-23T08:03:48;94953.59;;;9.41;51.88
61292;BME280;47165;42.664;23.368;2023-02-23T08:06:15;94951.00;;;9.41;52.01
61292;BME280;47165;42.664;23.368;2023-02-23T08:08:41;94950.41;;;9.52;51.74
61292;BME280;47165;42.664;23.368;2023-02-23T08:11:07;94960.31;;;9.61;51.72
61292;BME280;47165;42.664;23.368;2023-02-23T08:13:32;94953.78;;;9.70;51.45
61292;BME280;47165;42.664;23.368;2023-02-23T08:15:58;94952.59;;;9.76;51.51
61292;BME280;47165;42.664;23.368;2023-02-23T08:18:24;94958.84;;;9.89;51.33
61292;BME280;47165;42.664;23.368;2023-02-23T08:20:52;94950.00;;;9.92;51.64
61292;BME280;47165;42.664;23.368;2023-02-23T08:23:21;94946.47;;;9.93;51.67
61292;BME280;47165;42.664;23.368;2023-02-23T08:25:46;94948.34;;;9.91;51.53
61292;BME280;47165;42.664;23.368;2023-02-23T08:28:12;94955.22;;;10.07;51.44
61292;BME280;47165;42.664;23.368;2023-02-23T08:30:39;94959.91;;;10.17;51.05
61292;BME280;47165;42.664;23.368;2023-02-23T08:33:05;94958.72;;;10.22;50.86
61292;BME280;47165;42.664;23.368;2023-02-23T08:35:31;94961.53;;;10.19;51.04
61292;BME280;47165;42.664;23.368;2023-02-23T08:37:57;94960.75;;;10.17;51.11
61292;BME280;47165;42.664;23.368;2023-02-23T08:40:23;94950.50;;;10.30;50.83
61292;BME280;47165;42.664;23.368;2023-02-23T08:42:48;94953.50;;;10.38;50.71
61292;BME280;47165;42.664;23.368;2023-02-23T08:45:16;94957.97;;;10.52;50.52
61292;BME280;47165;42.664;23.368;2023-02-23T08:47:42;94945.53;;;10.56;50.31
61292;BME280;47165;42.664;23.368;2023-02-23T08:50:08;94949.41;;;10.64;50.08
61292;BME280;47165;42.664;23.368;2023-02-23T08:52:35;94951.94;;;10.80;49.96
61292;BME280;47165;42.664;23.368;2023-02-23T08:55:01;94947.63;;;10.95;49.75
61292;BME280;47165;42.664;23.368;2023-02-23T08:57:27;94942.50;;;11.08;49.57
61292;BME280;47165;42.664;23.368;2023-02-23T08:59:52;94951.47;;;11.18;49.34
61292;BME280;47165;42.664;23.368;2023-02-23T09:02:17;94947.44;;;11.27;49.32
61292;BME280;47165;42.664;23.368;2023-02-23T09:04:43;94945.88;;;11.39;49.06
61292;BME280;47165;42.664;23.368;2023-02-23T09:07:14;94948.19;;;11.43;48.15
61292;BME280;47165;42.664;23.368;2023-02-23T09:09:39;94943.16;;;11.40;48.17
61292;BME280;47165;42.664;23.368;2023-02-23T09:12:05;94941.84;;;11.47;47.90
61292;BME280;47165;42.664;23.368;2023-02-23T09:14:30;94941.75;;;11.63;48.05
61292;BME280;47165;42.664;23.368;2023-02-23T09:16:56;94927.09;;;11.61;47.42
61292;BME280;47165;42.664;23.368;2023-02-23T09:19:22;94943.31;;;11.52;47.45
61292;BME280;47165;42.664;23.368;2023-02-23T09:21:47;94937.91;;;11.69;47.39
61292;BME280;47165;42.664;23.368;2023-02-23T09:24:13;94940.50;;;11.83;47.09
61292;BME280;47165;42.664;23.368;2023-02-23T09:26:38;94931.16;;;11.94;46.98
61292;BME280;47165;42.664;23.368;2023-02-23T09:29:06;94941.47;;;12.10;46.28
61292;BME280;47165;42.664;23.368;2023-02-23T09:31:32;94940.84;;;12.06;46.19
61292;BME280;47165;42.664;23.368;2023-02-23T09:33:57;94935.25;;;11.83;46.03
61292;BME280;47165;42.664;23.368;2023-02-23T09:36:25;94937.59;;;12.02;45.36
61292;BME280;47165;42.664;23.368;2023-02-23T09:38:52;94930.69;;;12.28;45.32
61292;BME280;47165;42.664;23.368;2023-02-23T09:44:14;94935.91;;;12.68;44.43
61292;BME280;47165;42.664;23.368;2023-02-23T09:49:31;94922.44;;;13.00;44.12
61292;BME280;47165;42.664;23.368;2023-02-23T09:51:59;94921.59;;;13.13;44.09
61292;BME280;47165;42.664;23.368;2023-02-23T09:54:29;94916.53;;;13.22;43.82
61292;BME280;47165;42.664;23.368;2023-02-23T09:57:00;94927.09;;;13.35;42.74
61292;BME280;47165;42.664;23.368;2023-02-23T09:59:27;94918.75;;;13.28;42.25
61292;BME280;47165;42.664;23.368;2023-02-23T10:02:02;94917.41;;;13.48;42.67
61292;BME280;47165;42.664;23.368;2023-02-23T10:04:55;94922.09;;;13.69;42.48
61292;BME280;47165;42.664;23.368;2023-02-23T10:20:47;94908.19;;;14.65;40.70
61292;BME280;47165;42.664;23.368;2023-02-23T10:23:21;94896.31;;;14.83;40.07
61292;BME280;47165;42.664;23.368;2023-02-23T10:25:50;94898.09;;;14.94;39.59
61292;BME280;47165;42.664;23.368;2023-02-23T10:28:20;94897.19;;;15.06;39.46
61292;BME280;47165;42.664;23.368;2023-02-23T10:30:48;94897.69;;;15.34;39.29
61292;BME280;47165;42.664;23.368;2023-02-23T10:33:37;94887.63;;;15.62;38.68
61292;BME280;47165;42.664;23.368;2023-02-23T10:36:31;94880.00;;;15.81;37.91
61292;BME280;47165;42.664;23.368;2023-02-23T10:38:59;94871.94;;;15.94;36.98
61292;BME280;47165;42.664;23.368;2023-02-23T10:41:24;94868.78;;;16.12;37.34
61292;BME280;47165;42.664;23.368;2023-02-23T10:43:50;94869.41;;;16.04;36.87
61292;BME280;47165;42.664;23.368;2023-02-23T10:46:21;94868.19;;;16.40;37.25
61292;BME280;47165;42.664;23.368;2023-02-23T10:48:49;94869.34;;;16.80;36.94
61292;BME280;47165;42.664;23.368;2023-02-23T10:51:27;94864.06;;;17.22;36.17
61292;BME280;47165;42.664;23.368;2023-02-23T10:53:55;94865.75;;;17.63;35.78
61292;BME280;47165;42.664;23.368;2023-02-23T10:56:22;94857.56;;;18.07;34.51
61292;BME280;47165;42.664;23.368;2023-02-23T11:01:39;94856.50;;;18.58;32.73
61292;BME280;47165;42.664;23.368;2023-02-23T11:04:19;94850.78;;;18.82;31.60
61292;BME280;47165;42.664;23.368;2023-02-23T11:06:47;94848.09;;;19.12;31.82
61292;BME280;47165;42.664;23.368;2023-02-23T11:09:28;94826.59;;;19.52;31.21
61292;BME280;47165;42.664;23.368;2023-02-23T11:14:26;94833.28;;;20.29;29.70
61292;BME280;47165;42.664;23.368;2023-02-23T11:16:54;94823.28;;;20.77;29.13
61292;BME280;47165;42.664;23.368;2023-02-23T11:19:26;94824.47;;;21.61;27.15
61292;BME280;47165;42.664;23.368;2023-02-23T11:21:54;94827.72;;;22.24;26.38
61292;BME280;47165;42.664;23.368;2023-02-23T11:26:55;94815.41;;;23.94;24.23
61292;BME280;47165;42.664;23.368;2023-02-23T11:29:37;94815.56;;;24.23;23.47
61292;BME280;47165;42.664;23.368;2023-02-23T11:32:08;94803.25;;;24.22;23.28
61292;BME280;47165;42.664;23.368;2023-02-23T11:34:37;94798.94;;;23.82;23.78
61292;BME280;47165;42.664;23.368;2023-02-23T11:39:57;94805.69;;;24.01;23.98
61292;BME280;47165;42.664;23.368;2023-02-23T11:45:16;94786.53;;;25.13;22.60
61292;BME280;47165;42.664;23.368;2023-02-23T11:47:50;94791.47;;;25.54;22.14
61292;BME280;47165;42.664;23.368;2023-02-23T11:50:30;94793.16;;;26.06;21.37
61292;BME280;47165;42.664;23.368;2023-02-23T11:53:14;94782.41;;;26.57;20.98
61292;BME280;47165;42.664;23.368;2023-02-23T11:55:51;94786.22;;;26.69;20.02
61292;BME280;47165;42.664;23.368;2023-02-23T11:58:45;94782.66;;;26.84;20.44
61292;BME280;47165;42.664;23.368;2023-02-23T12:01:14;94774.75;;;26.76;20.03
61292;BME280;47165;42.664;23.368;2023-02-23T12:04:07;94778.81;;;26.50;20.81
61292;BME280;47165;42.664;23.368;2023-02-23T12:06:40;94783.28;;;26.21;21.09
61292;BME280;47165;42.664;23.368;2023-02-23T12:11:47;94782.34;;;25.33;21.85
61292;BME280;47165;42.664;23.368;2023-02-23T12:16:54;94769.34;;;25.60;21.70
61292;BME280;47165;42.664;23.368;2023-02-23T12:19:32;94775.50;;;25.60;21.47
61292;BME280;47165;42.664;23.368;2023-02-23T12:22:10;94766.28;;;25.48;21.11
61292;BME280;47165;42.664;23.368;2023-02-23T12:24:55;94766.94;;;25.35;21.93
61292;BME280;47165;42.664;23.368;2023-02-23T12:27:42;94770.41;;;24.68;22.31
61292;BME280;47165;42.664;23.368;2023-02-23T12:33:00;94758.19;;;24.50;23.17
61292;BME280;47165;42.664;23.368;2023-02-23T12:38:27;94764.53;;;23.95;23.35
61292;BME280;47165;42.664;23.368;2023-02-23T12:41:00;94770.69;;;23.08;24.64
61292;BME280;47165;42.664;23.368;2023-02-23T12:43:39;94769.34;;;22.96;24.71
61292;BME280;47165;42.664;23.368;2023-02-23T12:49:12;94757.06;;;22.79;25.59
61292;BME280;47165;42.664;23.368;2023-02-23T12:51:51;94774.16;;;22.93;25.25
61292;BME280;47165;42.664;23.368;2023-02-23T12:54:17;94761.72;;;22.85;25.07
61292;BME280;47165;42.664;23.368;2023-02-23T13:02:40;94758.06;;;22.45;25.18
61292;BME280;47165;42.664;23.368;2023-02-23T13:11:04;94749.91;;;22.71;25.33
61292;BME280;47165;42.664;23.368;2023-02-23T13:13:49;94754.72;;;22.84;25.57
61292;BME280;47165;42.664;23.368;2023-02-23T13:19:25;94753.09;;;22.66;25.19
61292;BME280;47165;42.664;23.368;2023-02-23T13:22:43;94751.56;;;22.72;25.35
61292;BME280;47165;42.664;23.368;2023-02-23T13:28:32;94747.75;;;22.66;25.35
61292;BME280;47165;42.664;23.368;2023-02-23T13:30:59;94752.44;;;22.23;25.74
61292;BME280;47165;42.664;23.368;2023-02-23T13:33:28;94750.09;;;22.28;25.59
61292;BME280;47165;42.664;23.368;2023-02-23T13:36:01;94746.59;;;22.36;25.58
61292;BME280;47165;42.664;23.368;2023-02-23T13:38:39;94749.06;;;22.13;25.92
61292;BME280;47165;42.664;23.368;2023-02-23T13:43:54;94747.38;;;22.04;25.95
61292;BME280;47165;42.664;23.368;2023-02-23T13:46:52;94746.19;;;22.06;26.27
61292;BME280;47165;42.664;23.368;2023-02-23T13:49:37;94745.53;;;22.04;25.92
61292;BME280;47165;42.664;23.368;2023-02-23T13:52:15;94748.53;;;22.01;25.93
61292;BME280;47165;42.664;23.368;2023-02-23T13:54:54;94755.50;;;22.02;25.69
61292;BME280;47165;42.664;23.368;2023-02-23T13:57:29;94754.00;;;22.00;25.92
61292;BME280;47165;42.664;23.368;2023-02-23T13:59:55;94752.81;;;21.94;26.21
61292;BME280;47165;42.664;23.368;2023-02-23T14:02:34;94756.34;;;21.95;26.38
61292;BME280;47165;42.664;23.368;2023-02-23T14:07:41;94757.47;;;21.84;25.91
61292;BME280;47165;42.664;23.368;2023-02-23T14:10:14;94747.94;;;21.65;25.75
61292;BME280;47165;42.664;23.368;2023-02-23T14:13:03;94753.22;;;21.57;25.91
61292;BME280;47165;42.664;23.368;2023-02-23T14:23:35;94745.66;;;20.75;27.59
61292;BME280;47165;42.664;23.368;2023-02-23T14:26:34;94753.47;;;20.33;29.08
61292;BME280;47165;42.664;23.368;2023-02-23T14:34:54;94743.88;;;20.40;29.76
61292;BME280;47165;42.664;23.368;2023-02-23T14:38:14;94748.69;;;20.18;29.97
61292;BME280;47165;42.664;23.368;2023-02-23T14:40:24;94755.13;;;20.16;30.33
61292;BME280;47165;42.664;23.368;2023-02-23T14:42:56;94762.22;;;19.97;30.41
61292;BME280;47165;42.664;23.368;2023-02-23T14:45:24;94771.78;;;19.90;30.83
61292;BME280;47165;42.664;23.368;2023-02-23T14:48:12;94772.03;;;19.69;31.01
61292;BME280;47165;42.664;23.368;2023-02-23T14:50:40;94770.81;;;19.63;31.28
61292;BME280;47165;42.664;23.368;2023-02-23T14:53:12;94772.38;;;19.56;31.31
61292;BME280;47165;42.664;23.368;2023-02-23T14:55:42;94775.25;;;19.35;31.78
61292;BME280;47165;42.664;23.368;2023-02-23T14:58:25;94772.97;;;19.22;32.38
61292;BME280;47165;42.664;23.368;2023-02-23T15:00:51;94776.28;;;19.24;32.32
61292;BME280;47165;42.664;23.368;2023-02-23T15:03:16;94766.13;;;18.82;33.59
61292;BME280;47165;42.664;23.368;2023-02-23T15:05:49;94772.13;;;18.55;33.23
61292;BME280;47165;42.664;23.368;2023-02-23T15:08:24;94782.59;;;18.47;33.61
61292;BME280;47165;42.664;23.368;2023-02-23T15:13:33;94796.19;;;17.84;34.40
61292;BME280;47165;42.664;23.368;2023-02-23T15:16:05;94796.31;;;17.82;34.35
61292;BME280;47165;42.664;23.368;2023-02-23T15:18:37;94803.41;;;17.72;34.72